Terminal Aerodrome Forecast
Issued by NWS Grand Forks, ND

Home | Current Version | Previous Version | Graphics & Text | Print | Product List | Glossary On
Versions: 1 2 3 4 5 6 7 8 9 10 11 12 13 14 15 16 17 18 19 20
000
FTUS43 KFGF 271700
TAFGFK
TAF
KGFK 271720Z 2718/2818 19010KT P6SM SCT250
     FM272100 18009KT P6SM BKN100
     FM280300 15015KT 1SM -SN OVC009
     FM281300 10007KT P6SM OVC015=

USA.gov is the U.S. government's official web portal to all federal, state and local government web resources and services.